»·PEaware :: N453WA CZYW-PASI

N453WA :: CZYW-PASI

FLIGHT INFORMATION

Flight Status: Arrived
Operator: Privately registered:
United States
More flights under this callsign
Pilot: Steve K. (2395)
Aircraft: DEHAVILLAND DH-6 TWIN OTTER
(DHC6)
More flights by this aircraft type
Origin: CZYW
Destination: PASI Sitka Rocky Gutierrez
United States
More flights between these airports :: More routes between these airports
Route: DIRECT
File this flight plan on PilotEdge
Remarks:
Altitude:
(Current/Filed)
12,000ft
Speed:
(Current/Filed)
150kts
Departed: 16-Feb-16 08:31 AM
Arrived: 16-Feb-16 09:52 AM
Distance/Time
Traveled:
Not Available
Distance/Time
To Go:
Arrived

Flight Plot

Page will automatically refresh every two minutes.

Flight plan parsing failed; only flown route is shown


Map Options




Map Legend


Flown Route
Filed Route
Departure Airport
Arrival Airport
Navaid (VOR, NDB)
Fix

Horizontal Profiles

Position Reports

Time Latitude Longitude Heading Altitude Ground
Speed
16-Feb-16 08:24 60.129786 -132.854037 207 6184ft 144kts
16-Feb-16 08:25 60.098545 -132.880178 211 7549ft 142kts
16-Feb-16 08:26 60.066063 -132.908504 215 9496ft 120kts
16-Feb-16 08:27 60.037676 -132.933835 217 11145ft 124kts
16-Feb-16 08:28 60.001002 -132.966574 213 11861ft 156kts
16-Feb-16 08:29 59.960811 -133.002055 213 11976ft 163kts
16-Feb-16 08:30 59.919467 -133.038575 213 11959ft 167kts
16-Feb-16 08:31 59.879271 -133.074017 213 11942ft 168kts
16-Feb-16 08:32 59.841909 -133.107017 213 11930ft 169kts
16-Feb-16 08:33 59.798941 -133.145347 212 11928ft 170kts
16-Feb-16 08:34 59.755666 -133.183322 212 11928ft 170kts
16-Feb-16 08:35 59.712389 -133.221105 212 11928ft 170kts
16-Feb-16 08:36 59.668980 -133.258885 212 11927ft 170kts
16-Feb-16 08:37 59.625683 -133.296462 212 11927ft 170kts
16-Feb-16 08:38 59.582387 -133.333927 212 11927ft 170kts
16-Feb-16 08:39 59.540469 -133.370098 212 11927ft 170kts
16-Feb-16 08:40 59.505320 -133.400342 212 11927ft 169kts
16-Feb-16 08:41 59.465676 -133.434362 213 11927ft 169kts
16-Feb-16 08:42 59.422724 -133.471134 213 11926ft 168kts
16-Feb-16 08:43 59.380001 -133.507626 214 11926ft 166kts
16-Feb-16 08:44 59.339960 -133.541749 214 11926ft 166kts
16-Feb-16 08:45 59.307058 -133.569718 214 11926ft 165kts
16-Feb-16 08:46 59.273334 -133.598319 214 11926ft 165kts
16-Feb-16 08:47 59.235178 -133.630598 214 11926ft 165kts
16-Feb-16 08:48 59.199802 -133.660456 214 11925ft 165kts
16-Feb-16 08:49 59.166589 -133.688426 214 11925ft 165kts
16-Feb-16 08:50 59.134226 -133.715622 214 11925ft 165kts
16-Feb-16 08:51 59.096773 -133.747028 214 11925ft 165kts
16-Feb-16 08:52 59.054636 -133.782271 214 11925ft 165kts
16-Feb-16 08:53 59.019331 -133.811726 214 11925ft 165kts
16-Feb-16 08:54 58.977153 -133.846830 214 11924ft 165kts
16-Feb-16 08:55 58.934932 -133.881875 214 11924ft 165kts
16-Feb-16 08:56 58.892708 -133.916831 214 11924ft 165kts
16-Feb-16 08:57 58.850451 -133.951720 214 11924ft 165kts
16-Feb-16 08:58 58.809019 -133.985838 214 11924ft 165kts
16-Feb-16 08:59 58.766799 -134.020513 214 11923ft 165kts
16-Feb-16 09:00 58.724537 -134.055131 214 11923ft 165kts
16-Feb-16 09:01 58.685454 -134.087066 214 11923ft 164kts
16-Feb-16 09:02 58.643431 -134.121809 214 11929ft 165kts
16-Feb-16 09:03 58.603954 -134.158401 220 11928ft 162kts
16-Feb-16 09:04 58.565096 -134.202272 220 11928ft 162kts
16-Feb-16 09:05 58.526109 -134.246187 220 11928ft 162kts
16-Feb-16 09:06 58.488292 -134.288672 220 11927ft 162kts
16-Feb-16 09:07 58.450618 -134.330890 220 11927ft 162kts
16-Feb-16 09:08 58.411722 -134.374367 220 11927ft 162kts
16-Feb-16 09:09 58.372768 -134.417796 220 11927ft 162kts
16-Feb-16 09:10 58.333837 -134.461088 220 11927ft 162kts
16-Feb-16 09:11 58.297352 -134.501559 220 11926ft 162kts
16-Feb-16 09:12 58.266303 -134.535923 220 11926ft 162kts
16-Feb-16 09:13 58.234963 -134.570538 220 11926ft 161kts
16-Feb-16 09:14 58.201194 -134.607756 220 11926ft 161kts
16-Feb-16 09:15 58.162268 -134.650556 220 11925ft 161kts
16-Feb-16 09:16 58.123248 -134.693350 220 11925ft 161kts
16-Feb-16 09:17 58.084414 -134.735830 220 11925ft 161kts
16-Feb-16 09:18 58.045468 -134.778325 220 11921ft 161kts
16-Feb-16 09:19 58.009798 -134.817151 220 11917ft 161kts
16-Feb-16 09:20 57.970185 -134.860159 220 11924ft 161kts
16-Feb-16 09:21 57.940122 -134.892733 220 11926ft 161kts
16-Feb-16 09:22 57.903753 -134.932048 220 11929ft 161kts
16-Feb-16 09:23 57.864863 -134.973987 220 11934ft 161kts
16-Feb-16 09:24 57.826543 -135.015208 220 12002ft 159kts
16-Feb-16 09:25 57.787980 -135.056582 220 11636ft 158kts
16-Feb-16 09:26 57.763654 -135.082619 221 10975ft 156kts
16-Feb-16 09:27 57.734045 -135.114595 220 10185ft 158kts
16-Feb-16 09:28 57.695150 -135.156594 219 9198ft 166kts
16-Feb-16 09:29 57.654050 -135.200425 217 8213ft 173kts
16-Feb-16 09:30 57.612318 -135.244659 217 8008ft 173kts
16-Feb-16 09:31 57.570006 -135.289420 217 8004ft 175kts
16-Feb-16 09:32 57.527562 -135.334175 217 7995ft 176kts
16-Feb-16 09:33 57.484950 -135.379007 217 7983ft 176kts
16-Feb-16 09:34 57.440919 -135.425273 216 7546ft 185kts
16-Feb-16 09:35 57.393641 -135.465930 199 7027ft 193kts
16-Feb-16 09:36 57.341563 -135.488082 197 6513ft 186kts
16-Feb-16 09:37 57.291031 -135.511120 197 5493ft 184kts
16-Feb-16 09:38 57.246122 -135.533729 197 4170ft 155kts
16-Feb-16 09:39 57.206401 -135.551684 163 2844ft 143kts
16-Feb-16 09:40 57.175062 -135.537275 165 2489ft 101kts
16-Feb-16 09:41 57.146351 -135.523502 164 2490ft 109kts
16-Feb-16 09:42 57.120254 -135.493648 135 2023ft 99kts
16-Feb-16 09:43 57.102290 -135.461161 135 1517ft 96kts
16-Feb-16 09:44 57.081681 -135.423918 135 907ft 108kts
16-Feb-16 09:45 57.061969 -135.388341 135 318ft 89kts
16-Feb-16 09:46 57.050554 -135.367710 135 25ft 0kts
16-Feb-16 09:47 57.050554 -135.367710 135 25ft 0kts
16-Feb-16 09:48 57.050554 -135.367710 135 25ft 0kts
16-Feb-16 09:49 57.050554 -135.367710 135 25ft 0kts
16-Feb-16 09:50 57.050554 -135.367710 135 25ft 0kts
16-Feb-16 09:51 57.050554 -135.367710 135 25ft 0kts
16-Feb-16 09:52 57.050554 -135.367710 135 25ft 0kts
16-Feb-16 09:53 57.050554 -135.367710 135 25ft 0kts
16-Feb-16 09:54 57.050554 -135.367710 135 25ft 0kts
16-Feb-16 09:55 57.050554 -135.367710 135 25ft 0kts
16-Feb-16 09:56 57.050554 -135.367710 135 25ft 0kts
16-Feb-16 09:57 57.050554 -135.367710 135 25ft 0kts
16-Feb-16 09:58 57.050554 -135.367710 135 25ft 0kts
16-Feb-16 09:59 57.050554 -135.367710 135 25ft 0kts
16-Feb-16 10:00 57.050554 -135.367710 135 25ft 0kts

Navigation Log

Ident Type
Flight plan parsing failed, navigation log unavailable